Time;durP1;ratioP1;P1;durP2;ratioP2;P2;SDS_P1;SDS_P2;PMS_P1;PMS_P2;Temp;Humidity;BMP_temperature;BMP_pressure;BME280_temperature;BME280_humidity;BME280_pressure;Samples;Min_cycle;Max_cycle;Signal;HPM_P1;HPM_P2
2021/09/23 00:01:10;;;;;;;2.05;1.85;;;7.70;87.20;;;;;;4943148;28;20039;-68
2021/09/23 00:03:57;;;;;;;2.08;1.90;;;7.60;86.00;;;;;;4957491;28;20027;-68
2021/09/23 00:06:23;;;;;;;2.25;1.77;;;7.50;85.90;;;;;;4948649;28;20027;-67
2021/09/23 00:08:51;;;;;;;1.90;1.80;;;7.50;86.20;;;;;;4950349;28;20521;-68
2021/09/23 00:11:17;;;;;;;1.55;1.45;;;7.50;86.70;;;;;;4948657;28;20027;-67
2021/09/23 00:13:48;;;;;;;2.53;1.80;;;7.40;87.10;;;;;;4954065;28;20485;-67
2021/09/23 00:16:14;;;;;;;1.83;1.73;;;7.30;87.70;;;;;;4948161;28;20035;-68
2021/09/23 00:18:40;;;;;;;1.95;1.73;;;7.30;88.10;;;;;;4950230;28;21241;-67
2021/09/23 00:21:06;;;;;;;2.50;2.30;;;7.30;88.00;;;;;;4947217;28;20551;-68
2021/09/23 00:23:33;;;;;;;25.17;2.90;;;7.30;88.10;;;;;;4953503;28;20046;-67
2021/09/23 00:25:59;;;;;;;28.80;2.72;;;7.30;89.00;;;;;;4949070;28;20091;-67
2021/09/23 00:28:24;;;;;;;2.17;1.95;;;7.30;89.40;;;;;;4947320;28;20044;-67
2021/09/23 00:30:51;;;;;;;3.55;2.13;;;7.20;89.90;;;;;;4960668;28;20067;-67
2021/09/23 00:33:17;;;;;;;4.40;2.35;;;7.10;90.50;;;;;;4959719;28;20117;-67
2021/09/23 00:35:42;;;;;;;2.60;2.20;;;7.10;90.10;;;;;;4950082;28;20032;-67
2021/09/23 00:38:08;;;;;;;2.67;1.75;;;7.10;90.00;;;;;;4953483;28;20058;-67
2021/09/23 00:40:34;;;;;;;1.95;1.77;;;7.10;89.70;;;;;;4946286;28;20370;-67
2021/09/23 00:43:00;;;;;;;2.08;1.98;;;7.00;89.80;;;;;;4946396;28;20118;-66
2021/09/23 00:45:25;;;;;;;2.75;2.50;;;6.90;90.20;;;;;;4960308;28;20035;-67
2021/09/23 00:47:51;;;;;;;2.42;2.15;;;6.90;90.40;;;;;;4946221;28;20032;-67
2021/09/23 00:50:20;;;;;;;3.05;2.28;;;7.00;90.40;;;;;;4961420;28;20031;-67
2021/09/23 00:52:46;;;;;;;2.78;2.50;;;7.00;90.50;;;;;;4952261;28;20022;-67
2021/09/23 00:55:12;;;;;;;4.15;2.88;;;7.00;90.60;;;;;;4947290;28;20031;-67
2021/09/23 00:57:39;;;;;;;2.53;2.05;;;7.10;90.30;;;;;;4945866;28;20400;-67
2021/09/23 01:00:07;;;;;;;2.92;2.35;;;7.10;90.20;;;;;;4946663;28;20491;-68
2021/09/23 01:02:33;;;;;;;5.70;2.20;;;7.10;90.30;;;;;;4950341;28;20513;-67
2021/09/23 01:04:59;;;;;;;2.78;2.40;;;7.10;90.70;;;;;;4955253;28;20065;-67
2021/09/23 01:07:24;;;;;;;1.65;1.55;;;7.10;90.40;;;;;;4947513;28;20178;-67
2021/09/23 01:09:54;;;;;;;2.03;1.92;;;7.10;88.30;;;;;;4947883;28;20054;-67
2021/09/23 01:12:24;;;;;;;2.85;1.63;;;7.00;88.00;;;;;;4959767;28;20031;-67
2021/09/23 01:14:50;;;;;;;2.00;1.80;;;6.90;88.20;;;;;;4946360;28;20027;-67
2021/09/23 01:17:16;;;;;;;2.45;1.85;;;6.90;90.10;;;;;;4941605;28;20031;-67
2021/09/23 01:19:44;;;;;;;4.13;1.83;;;6.90;89.90;;;;;;4944734;28;20035;-68
2021/09/23 01:22:11;;;;;;;1.35;1.25;;;6.90;87.90;;;;;;4948571;28;20086;-67
2021/09/23 01:24:38;;;;;;;1.50;1.40;;;6.80;86.40;;;;;;4958794;28;20043;-67
2021/09/23 01:27:04;;;;;;;1.50;1.40;;;6.50;85.60;;;;;;4944689;28;20035;-66
2021/09/23 01:29:30;;;;;;;1.60;1.50;;;6.50;86.60;;;;;;4948790;28;20035;-67
2021/09/23 01:31:57;;;;;;;1.45;1.35;;;6.30;86.80;;;;;;4944459;28;20054;-67
2021/09/23 01:34:22;;;;;;;1.48;1.38;;;6.30;88.00;;;;;;4961226;28;20110;-67
2021/09/23 01:36:48;;;;;;;1.65;1.45;;;6.30;88.50;;;;;;4964743;28;20117;-67
2021/09/23 01:39:18;;;;;;;1.65;1.55;;;6.30;88.90;;;;;;4962723;28;20035;-67
2021/09/23 01:41:44;;;;;;;2.17;1.60;;;6.40;88.90;;;;;;4945463;28;20082;-67
2021/09/23 01:44:10;;;;;;;1.63;1.52;;;6.40;88.80;;;;;;4950927;28;20031;-68
2021/09/23 01:46:35;;;;;;;1.40;1.30;;;6.40;88.60;;;;;;4943539;28;20385;-67
2021/09/23 01:49:01;;;;;;;1.35;1.30;;;6.30;89.00;;;;;;4960781;28;20065;-66
2021/09/23 01:51:27;;;;;;;1.48;1.38;;;6.40;90.00;;;;;;4949637;28;20031;-67
2021/09/23 01:53:52;;;;;;;1.27;1.27;;;6.40;90.20;;;;;;4952248;28;20030;-67
2021/09/23 01:56:18;;;;;;;1.60;1.50;;;6.50;90.20;;;;;;4948943;28;20032;-67
2021/09/23 01:58:43;;;;;;;2.33;2.10;;;6.40;89.80;;;;;;4943014;28;20030;-66
2021/09/23 02:01:09;;;;;;;1.85;1.70;;;6.50;89.90;;;;;;4947422;28;20031;-67
2021/09/23 02:03:35;;;;;;;2.75;1.50;;;6.40;90.20;;;;;;4948181;28;20036;-67
2021/09/23 02:06:00;;;;;;;1.90;1.80;;;6.40;90.50;;;;;;4945206;28;20109;-67
2021/09/23 02:08:26;;;;;;;2.13;1.92;;;6.50;90.30;;;;;;4948919;28;20035;-67
2021/09/23 02:10:51;;;;;;;2.28;1.90;;;6.40;90.40;;;;;;4949196;28;20080;-67
2021/09/23 02:13:17;;;;;;;2.08;1.88;;;6.40;90.50;;;;;;4951589;28;20031;-67
2021/09/23 02:15:43;;;;;;;1.85;1.70;;;6.40;90.70;;;;;;4952458;28;20031;-66
2021/09/23 02:18:08;;;;;;;2.00;1.80;;;6.40;89.90;;;;;;4949063;28;20027;-67
2021/09/23 02:20:34;;;;;;;2.67;1.75;;;6.40;89.50;;;;;;4948580;28;20757;-67
2021/09/23 02:23:00;;;;;;;2.28;1.45;;;6.40;89.50;;;;;;4965250;28;20031;-67
2021/09/23 02:25:25;;;;;;;1.58;1.48;;;6.30;88.80;;;;;;4947352;28;20066;-67
2021/09/23 02:27:51;;;;;;;1.40;1.30;;;6.20;88.10;;;;;;4946076;28;20047;-67
2021/09/23 02:30:16;;;;;;;1.27;1.17;;;6.10;88.00;;;;;;4949746;28;20046;-67
2021/09/23 02:32:42;;;;;;;1.75;1.30;;;6.20;88.60;;;;;;4949881;28;20050;-67
2021/09/23 02:35:09;;;;;;;1.00;1.00;;;6.20;88.80;;;;;;4954410;28;20134;-67
2021/09/23 02:37:34;;;;;;;1.05;1.05;;;6.20;89.00;;;;;;4950705;28;20023;-68
2021/09/23 02:40:00;;;;;;;1.30;1.20;;;6.10;89.40;;;;;;4947980;28;20050;-67
2021/09/23 02:42:26;;;;;;;1.38;1.30;;;6.10;89.20;;;;;;4944745;28;20054;-67
2021/09/23 02:44:52;;;;;;;1.70;1.60;;;6.00;89.30;;;;;;4950969;28;20035;-67
2021/09/23 02:47:19;;;;;;;2.33;1.63;;;6.00;90.00;;;;;;4947041;28;20039;-68
2021/09/23 02:49:45;;;;;;;1.30;1.30;;;6.00;90.40;;;;;;4960805;28;20122;-67
2021/09/23 02:52:10;;;;;;;1.20;1.15;;;6.00;90.10;;;;;;4946732;28;20473;-67
2021/09/23 02:54:36;;;;;;;2.65;1.60;;;6.00;90.20;;;;;;4943901;28;20086;-67
2021/09/23 02:57:02;;;;;;;1.45;1.35;;;6.10;90.20;;;;;;4947507;29;20093;-67
2021/09/23 02:59:28;;;;;;;1.50;1.40;;;6.10;90.20;;;;;;4947532;28;20031;-67
2021/09/23 03:01:53;;;;;;;1.60;1.50;;;6.10;90.30;;;;;;4947397;28;20046;-67
2021/09/23 03:04:19;;;;;;;2.20;2.00;;;6.10;90.40;;;;;;4949093;28;20086;-66
2021/09/23 03:06:44;;;;;;;3.40;1.95;;;6.00;90.60;;;;;;4949776;28;20082;-69
2021/09/23 03:09:10;;;;;;;5.03;2.20;;;5.90;91.10;;;;;;4950533;28;20043;-67
2021/09/23 03:11:36;;;;;;;2.13;1.90;;;5.80;92.00;;;;;;4947269;28;20134;-68
2021/09/23 03:14:02;;;;;;;2.45;2.25;;;5.80;92.10;;;;;;4949668;28;20618;-67
2021/09/23 03:16:27;;;;;;;3.65;2.30;;;5.80;91.90;;;;;;4965639;28;20027;-67
2021/09/23 03:18:53;;;;;;;2.60;2.22;;;5.90;91.50;;;;;;4951381;28;20612;-67
2021/09/23 03:21:19;;;;;;;2.55;2.08;;;5.90;91.20;;;;;;4951114;28;20035;-67
2021/09/23 03:23:46;;;;;;;4.03;2.22;;;5.90;91.20;;;;;;4953576;28;20054;-68
2021/09/23 03:26:12;;;;;;;3.15;1.88;;;5.90;90.90;;;;;;4951851;28;20110;-67
2021/09/23 03:28:38;;;;;;;2.03;1.85;;;5.90;90.50;;;;;;4951242;28;20110;-67
2021/09/23 03:31:04;;;;;;;1.98;1.88;;;5.90;90.30;;;;;;4966051;28;20467;-67
2021/09/23 03:33:29;;;;;;;1.85;1.70;;;5.80;89.40;;;;;;4949930;28;20142;-67
2021/09/23 03:35:55;;;;;;;2.10;1.98;;;5.70;87.80;;;;;;4951546;28;20027;-67
2021/09/23 03:38:21;;;;;;;1.45;1.40;;;5.60;88.00;;;;;;4950240;28;20055;-66
2021/09/23 03:40:48;;;;;;;1.92;1.48;;;5.70;89.00;;;;;;4948289;28;20586;-67
2021/09/23 03:43:15;;;;;;;2.73;2.30;;;5.60;89.70;;;;;;4947329;28;20031;-67
2021/09/23 03:45:41;;;;;;;3.30;2.40;;;5.60;90.10;;;;;;4945411;28;20094;-67
2021/09/23 03:48:07;;;;;;;4.18;2.30;;;5.70;90.20;;;;;;4946491;28;20528;-67
2021/09/23 03:50:33;;;;;;;3.45;2.50;;;5.70;90.20;;;;;;4963166;28;20089;-67
2021/09/23 03:52:59;;;;;;;2.78;2.30;;;5.70;90.00;;;;;;4964450;28;20092;-67
2021/09/23 03:55:25;;;;;;;5.57;2.47;;;5.70;89.40;;;;;;4951294;28;20481;-67
2021/09/23 03:57:50;;;;;;;3.83;2.75;;;5.70;90.00;;;;;;4946961;28;20548;-67
2021/09/23 04:00:20;;;;;;;6.85;3.03;;;5.70;90.40;;;;;;4947018;28;20114;-67
2021/09/23 04:02:46;;;;;;;4.82;2.65;;;5.70;90.50;;;;;;4949279;28;20122;-67
2021/09/23 04:05:12;;;;;;;3.42;2.63;;;5.70;90.50;;;;;;4945922;28;20404;-67
2021/09/23 04:07:37;;;;;;;4.20;2.72;;;5.70;90.30;;;;;;4952647;28;20031;-69
2021/09/23 04:10:04;;;;;;;3.88;1.98;;;5.70;90.10;;;;;;4949986;28;20461;-67
2021/09/23 04:12:30;;;;;;;4.00;2.65;;;5.70;90.20;;;;;;4946641;28;20031;-68
2021/09/23 04:14:56;;;;;;;2.65;2.17;;;5.70;90.10;;;;;;4948777;28;20086;-67
2021/09/23 04:17:23;;;;;;;1.60;1.50;;;5.70;89.90;;;;;;4950190;28;20031;-66
2021/09/23 04:19:49;;;;;;;1.02;1.02;;;5.50;87.60;;;;;;4952119;28;20511;-66
2021/09/23 04:22:15;;;;;;;1.67;1.50;;;5.30;88.80;;;;;;4948797;28;20031;-66
2021/09/23 04:24:40;;;;;;;1.83;1.65;;;5.20;90.00;;;;;;4944360;28;20050;-66
2021/09/23 04:27:06;;;;;;;1.70;1.60;;;5.30;90.30;;;;;;4950243;28;20522;-67
2021/09/23 04:29:32;;;;;;;1.83;1.50;;;5.20;90.40;;;;;;4954236;28;20054;-67
2021/09/23 04:31:58;;;;;;;2.03;1.92;;;5.30;90.50;;;;;;4950524;28;20043;-68
2021/09/23 04:34:24;;;;;;;1.67;1.58;;;5.30;90.60;;;;;;4948629;28;20103;-67
2021/09/23 04:36:50;;;;;;;4.00;1.75;;;5.20;90.50;;;;;;4949330;28;20115;-67
2021/09/23 04:39:17;;;;;;;2.00;1.90;;;5.20;90.60;;;;;;4950698;28;20082;-67
2021/09/23 04:41:43;;;;;;;1.95;1.75;;;5.20;91.00;;;;;;4948859;28;20114;-67
2021/09/23 04:44:09;;;;;;;1.92;1.83;;;5.20;91.10;;;;;;4947328;28;20117;-67
2021/09/23 04:46:34;;;;;;;1.90;1.80;;;5.20;91.10;;;;;;4948455;28;20027;-67
2021/09/23 04:49:00;;;;;;;1.88;1.77;;;5.30;91.00;;;;;;4944433;28;20540;-67
2021/09/23 04:51:27;;;;;;;1.77;1.67;;;5.30;90.90;;;;;;4951291;28;20106;-67
2021/09/23 04:53:54;;;;;;;2.97;2.00;;;5.40;90.90;;;;;;4949704;28;20026;-67
2021/09/23 04:56:21;;;;;;;3.67;2.63;;;5.40;90.70;;;;;;4946906;28;20572;-68
2021/09/23 04:58:46;;;;;;;5.80;2.45;;;5.40;91.20;;;;;;4945616;28;20106;-66
2021/09/23 05:01:12;;;;;;;2.95;2.17;;;5.30;91.50;;;;;;4961735;28;20110;-67
2021/09/23 05:03:38;;;;;;;4.10;2.05;;;5.40;91.30;;;;;;4951145;28;20433;-66
2021/09/23 05:06:03;;;;;;;2.92;2.40;;;5.40;91.10;;;;;;4950021;28;20042;-67
2021/09/23 05:08:29;;;;;;;3.08;2.25;;;5.40;91.10;;;;;;4944306;28;20031;-67
2021/09/23 05:10:55;;;;;;;3.05;2.45;;;5.40;91.00;;;;;;4951175;28;20027;-66
2021/09/23 05:13:20;;;;;;;9.20;2.97;;;5.30;91.00;;;;;;4948133;28;20031;-67
2021/09/23 05:15:46;;;;;;;2.78;2.47;;;5.30;91.10;;;;;;4946965;28;20027;-67
2021/09/23 05:18:12;;;;;;;1.95;1.85;;;5.30;91.20;;;;;;4948047;28;20030;-67
2021/09/23 05:20:38;;;;;;;2.47;1.85;;;5.30;91.30;;;;;;4963437;28;20031;-66
2021/09/23 05:23:05;;;;;;;3.60;1.98;;;5.20;91.20;;;;;;4946784;28;20536;-66
2021/09/23 05:25:31;;;;;;;3.90;2.33;;;5.20;91.10;;;;;;4950104;28;20043;-66
2021/09/23 05:27:57;;;;;;;3.80;2.40;;;5.20;91.10;;;;;;4951620;28;20035;-67
2021/09/23 05:30:23;;;;;;;3.00;1.90;;;5.20;91.10;;;;;;4949086;28;20481;-67
2021/09/23 05:32:49;;;;;;;2.35;2.15;;;5.20;91.00;;;;;;4949278;28;20023;-66
2021/09/23 05:35:16;;;;;;;2.72;2.10;;;5.10;90.20;;;;;;4953806;28;20023;-67
2021/09/23 05:37:42;;;;;;;2.80;2.35;;;5.00;90.70;;;;;;4949974;28;20034;-67
2021/09/23 05:40:09;;;;;;;4.40;2.58;;;5.00;91.30;;;;;;4949796;28;20469;-67
2021/09/23 05:42:36;;;;;;;4.78;3.05;;;5.10;91.70;;;;;;4949311;28;20031;-67
2021/09/23 05:45:02;;;;;;;5.07;3.28;;;5.20;91.70;;;;;;4950759;28;20077;-67
2021/09/23 05:47:28;;;;;;;4.43;3.20;;;5.20;92.10;;;;;;4946743;28;22282;-66
2021/09/23 05:49:54;;;;;;;3.97;2.80;;;5.30;91.90;;;;;;4947517;28;20044;-67
2021/09/23 05:52:20;;;;;;;3.50;2.70;;;5.40;92.00;;;;;;4945344;28;20592;-67
2021/09/23 05:54:46;;;;;;;4.22;2.95;;;5.40;91.90;;;;;;4949844;28;20372;-66
2021/09/23 05:57:17;;;;;;;2.88;2.10;;;5.40;91.90;;;;;;4949257;28;20042;-66
2021/09/23 05:59:43;;;;;;;4.00;2.70;;;5.50;92.00;;;;;;4949040;28;20370;-66
2021/09/23 06:02:08;;;;;;;3.78;2.90;;;5.50;92.10;;;;;;4944560;28;20042;-66
2021/09/23 06:04:34;;;;;;;4.22;3.08;;;5.50;92.30;;;;;;4943638;28;20027;-66
2021/09/23 06:07:00;;;;;;;4.65;2.55;;;5.50;92.10;;;;;;4943810;28;20048;-67
2021/09/23 06:09:25;;;;;;;4.55;3.30;;;5.50;92.10;;;;;;4961656;28;20031;-67
2021/09/23 06:11:52;;;;;;;4.75;3.30;;;5.60;92.00;;;;;;4964163;28;20050;-66
2021/09/23 06:14:18;;;;;;;3.92;2.72;;;5.60;92.00;;;;;;4963831;28;20554;-67
2021/09/23 06:16:44;;;;;;;4.40;3.05;;;5.70;92.10;;;;;;4947734;28;20076;-68
2021/09/23 06:19:10;;;;;;;5.40;3.28;;;5.70;92.00;;;;;;4943054;28;20110;-68
2021/09/23 06:21:35;;;;;;;6.95;3.25;;;5.70;92.40;;;;;;4959751;28;20034;-67
2021/09/23 06:24:01;;;;;;;6.63;3.63;;;5.80;92.70;;;;;;4962585;28;20047;-67
2021/09/23 06:26:27;;;;;;;4.97;3.63;;;5.80;93.00;;;;;;4964301;28;20030;-67
2021/09/23 06:28:52;;;;;;;6.63;4.10;;;5.90;93.10;;;;;;4949726;28;20390;-68
2021/09/23 06:31:18;;;;;;;6.85;4.03;;;5.90;92.90;;;;;;4949494;28;20508;-67
2021/09/23 06:33:44;;;;;;;6.57;3.78;;;6.00;92.70;;;;;;4949763;28;20111;-67
2021/09/23 06:36:10;;;;;;;6.60;3.80;;;6.00;93.10;;;;;;4944650;28;20046;-67
2021/09/23 06:38:36;;;;;;;6.43;3.85;;;6.00;93.50;;;;;;4948496;28;20776;-66
2021/09/23 06:41:02;;;;;;;6.28;4.38;;;6.00;93.70;;;;;;4944643;28;20034;-67
2021/09/23 06:43:28;;;;;;;6.95;5.00;;;6.10;94.20;;;;;;4965563;28;20035;-67
2021/09/23 06:45:54;;;;;;;6.50;4.55;;;6.30;95.50;;;;;;4966860;28;20027;-67
2021/09/23 06:48:20;;;;;;;8.65;4.93;;;6.40;96.20;;;;;;4951565;28;20579;-67
2021/09/23 06:50:45;;;;;;;7.93;5.03;;;6.50;96.50;;;;;;4948718;28;20038;-67
2021/09/23 06:53:11;;;;;;;8.60;4.57;;;6.60;97.00;;;;;;4951130;28;20027;-67
2021/09/23 06:55:37;;;;;;;9.63;5.25;;;6.70;97.20;;;;;;4951734;28;20051;-67
2021/09/23 06:58:03;;;;;;;10.73;5.47;;;6.90;97.80;;;;;;4967177;28;20066;-67
2021/09/23 07:00:28;;;;;;;6.57;4.53;;;7.00;97.90;;;;;;4953512;28;20095;-68
2021/09/23 07:02:54;;;;;;;10.25;5.65;;;7.00;97.70;;;;;;4950456;28;20035;-67
2021/09/23 07:05:19;;;;;;;7.05;5.03;;;7.10;97.60;;;;;;4950779;28;20053;-66
2021/09/23 07:07:45;;;;;;;7.32;5.03;;;7.20;97.60;;;;;;4951433;28;20034;-67
2021/09/23 07:10:11;;;;;;;8.10;4.80;;;7.30;97.70;;;;;;4954827;28;20030;-67
2021/09/23 07:12:37;;;;;;;8.52;4.82;;;7.40;98.30;;;;;;4953219;28;20035;-67
2021/09/23 07:15:04;;;;;;;8.30;5.63;;;7.50;98.20;;;;;;4950137;28;20032;-67
2021/09/23 07:17:31;;;;;;;10.75;6.28;;;7.60;98.70;;;;;;4951443;28;20023;-66
2021/09/23 07:19:57;;;;;;;11.88;6.20;;;7.70;98.90;;;;;;4947196;28;22304;-66
2021/09/23 07:22:23;;;;;;;11.13;5.88;;;7.80;99.20;;;;;;4951735;28;20051;-67
2021/09/23 07:24:49;;;;;;;9.57;6.10;;;7.90;99.30;;;;;;4952314;28;20082;-67
2021/09/23 07:27:15;;;;;;;10.18;5.68;;;8.00;99.20;;;;;;4947910;28;20502;-67
2021/09/23 07:29:41;;;;;;;9.35;5.85;;;8.20;98.90;;;;;;4950911;28;20098;-67
2021/09/23 07:32:09;;;;;;;12.38;6.00;;;8.40;99.10;;;;;;4952360;28;20032;-67
2021/09/23 07:34:34;;;;;;;11.45;5.80;;;8.50;99.10;;;;;;4949177;28;20039;-67
2021/09/23 07:37:00;;;;;;;11.73;5.63;;;8.60;99.10;;;;;;4952864;28;20464;-67
2021/09/23 07:39:26;;;;;;;7.68;5.53;;;8.70;98.80;;;;;;4951713;28;20035;-69
2021/09/23 07:41:52;;;;;;;9.77;5.68;;;8.80;98.80;;;;;;4948484;28;20027;-69
2021/09/23 07:44:20;;;;;;;11.23;5.95;;;8.90;98.80;;;;;;4953605;28;20027;-68
2021/09/23 07:46:45;;;;;;;7.57;5.03;;;9.10;98.90;;;;;;4951113;28;20117;-67
2021/09/23 07:49:11;;;;;;;9.43;6.10;;;9.20;98.30;;;;;;4950740;28;20027;-67
2021/09/23 07:51:37;;;;;;;9.65;5.20;;;9.20;97.80;;;;;;4946189;28;20024;-67
2021/09/23 07:54:03;;;;;;;10.15;5.07;;;9.40;97.90;;;;;;4946853;28;20023;-67
2021/09/23 07:56:28;;;;;;;8.65;5.18;;;9.50;97.30;;;;;;4951799;28;20486;-67
2021/09/23 07:58:54;;;;;;;9.25;5.53;;;9.60;97.60;;;;;;4951870;28;20027;-67
2021/09/23 08:01:20;;;;;;;7.40;4.90;;;9.80;97.50;;;;;;4965621;28;20401;-67
2021/09/23 08:03:45;;;;;;;5.75;4.05;;;9.90;96.50;;;;;;4960937;28;20034;-67
2021/09/23 08:06:11;;;;;;;5.85;3.90;;;10.00;96.40;;;;;;4946144;28;20023;-67
2021/09/23 08:08:37;;;;;;;6.28;3.95;;;10.20;96.20;;;;;;4957105;28;20034;-67
2021/09/23 08:11:02;;;;;;;8.77;4.55;;;10.30;95.90;;;;;;4950163;28;22427;-68
2021/09/23 08:13:28;;;;;;;5.80;4.32;;;10.50;96.10;;;;;;4950897;28;20023;-67
2021/09/23 08:15:54;;;;;;;5.82;4.25;;;10.60;95.20;;;;;;4951497;28;20459;-67
2021/09/23 08:18:20;;;;;;;5.57;3.88;;;10.70;95.50;;;;;;4945505;28;20031;-67
2021/09/23 08:20:49;;;;;;;5.28;3.72;;;10.90;94.80;;;;;;4949727;28;20031;-67
2021/09/23 08:23:15;;;;;;;6.22;3.50;;;11.00;94.00;;;;;;4949218;28;20190;-68
2021/09/23 08:25:40;;;;;;;6.53;3.55;;;11.10;93.60;;;;;;4948499;28;20110;-68
2021/09/23 08:28:07;;;;;;;5.30;3.58;;;11.10;93.20;;;;;;4950518;28;20465;-67
2021/09/23 08:30:33;;;;;;;8.18;4.10;;;11.20;93.80;;;;;;4947735;28;20039;-67
2021/09/23 08:32:59;;;;;;;6.55;4.03;;;11.40;93.90;;;;;;4952457;28;20079;-67
2021/09/23 08:35:25;;;;;;;7.03;4.18;;;11.60;94.00;;;;;;4950840;28;20040;-68
2021/09/23 08:37:50;;;;;;;5.97;3.83;;;11.80;94.10;;;;;;4948770;28;20031;-67
2021/09/23 08:40:16;;;;;;;6.80;4.07;;;11.80;93.50;;;;;;4946423;28;20050;-67
2021/09/23 08:42:44;;;;;;;4.50;3.50;;;12.00;93.20;;;;;;4942731;28;20113;-68
2021/09/23 08:45:13;;;;;;;5.22;4.00;;;12.10;92.20;;;;;;4947764;28;20027;-67
2021/09/23 08:47:40;;;;;;;5.25;3.60;;;12.30;91.70;;;;;;4944859;28;20063;-67
2021/09/23 08:50:13;;;;;;;6.35;4.20;;;12.40;91.10;;;;;;4943490;28;20027;-68
2021/09/23 08:52:40;;;;;;;7.70;4.18;;;12.40;91.20;;;;;;4944809;28;20361;-67
2021/09/23 08:55:06;;;;;;;4.60;3.33;;;12.60;91.10;;;;;;4946906;28;20031;-67
2021/09/23 08:57:33;;;;;;;5.82;3.67;;;12.80;91.20;;;;;;4960326;28;20023;-67
2021/09/23 09:00:08;;;;;;;7.18;4.20;;;12.90;90.50;;;;;;4947359;28;20544;-68
2021/09/23 09:02:34;;;;;;;8.93;3.70;;;13.00;90.70;;;;;;4948969;28;20035;-68
2021/09/23 09:04:59;;;;;;;4.18;3.42;;;13.10;90.30;;;;;;4951555;28;20623;-67
2021/09/23 09:07:28;;;;;;;4.88;3.42;;;13.30;90.80;;;;;;4948272;28;20042;-67
2021/09/23 09:10:06;;;;;;;5.25;3.40;;;13.40;90.70;;;;;;4949227;28;20038;-68
2021/09/23 09:12:32;;;;;;;4.03;3.20;;;13.50;89.80;;;;;;4951771;28;20038;-68
2021/09/23 09:14:59;;;;;;;5.07;3.33;;;13.60;89.70;;;;;;4950790;28;20034;-67
2021/09/23 09:17:25;;;;;;;4.97;3.55;;;13.60;86.60;;;;;;4950007;28;20047;-67
2021/09/23 09:19:59;;;;;;;4.63;3.50;;;13.60;88.30;;;;;;4952452;28;20054;-67
2021/09/23 09:22:28;;;;;;;3.97;3.10;;;13.80;88.60;;;;;;4963969;28;20046;-67
2021/09/23 09:24:59;;;;;;;6.15;3.13;;;13.90;87.10;;;;;;4944788;28;20058;-68
2021/09/23 09:27:34;;;;;;;5.07;3.35;;;13.80;85.50;;;;;;4943811;28;20488;-67
2021/09/23 09:30:04;;;;;;;4.25;3.25;;;13.90;85.60;;;;;;4950796;28;20393;-67
2021/09/23 09:32:57;;;;;;;6.38;3.20;;;13.90;86.20;;;;;;4949525;28;20035;-67
2021/09/23 09:35:30;;;;;;;5.78;3.20;;;14.00;84.40;;;;;;4948328;28;20039;-68
2021/09/23 09:37:59;;;;;;;7.07;3.28;;;14.10;83.80;;;;;;4949886;28;20033;-67
2021/09/23 09:40:29;;;;;;;5.28;3.78;;;14.20;85.80;;;;;;4949119;28;20039;-67
2021/09/23 09:42:55;;;;;;;3.95;3.00;;;14.30;84.70;;;;;;4964565;28;20124;-67
2021/09/23 09:45:27;;;;;;;4.03;3.08;;;14.20;84.70;;;;;;4946592;28;20038;-67
2021/09/23 09:47:54;;;;;;;4.25;3.03;;;14.30;83.50;;;;;;4949902;28;20035;-67
2021/09/23 09:50:27;;;;;;;4.53;3.53;;;14.30;84.20;;;;;;4952550;28;20027;-68
2021/09/23 09:53:00;;;;;;;6.80;3.10;;;14.60;85.00;;;;;;4949241;28;20035;-68
2021/09/23 09:55:31;;;;;;;4.32;3.40;;;14.70;84.90;;;;;;4947392;28;20103;-68
2021/09/23 09:57:57;;;;;;;3.70;3.08;;;14.70;83.60;;;;;;4948928;28;20055;-67
2021/09/23 10:00:25;;;;;;;4.43;2.97;;;14.80;84.70;;;;;;4947312;28;20027;-67
2021/09/23 10:02:50;;;;;;;5.00;3.20;;;15.00;84.60;;;;;;4945599;28;20403;-68
2021/09/23 10:05:18;;;;;;;3.90;3.25;;;15.10;82.50;;;;;;4947492;28;20031;-68
2021/09/23 10:07:47;;;;;;;6.20;3.28;;;15.00;81.10;;;;;;4952978;28;20035;-67
2021/09/23 10:10:23;;;;;;;5.25;3.20;;;15.10;82.60;;;;;;4960126;28;20031;-68
2021/09/23 10:12:49;;;;;;;4.40;3.13;;;15.00;82.00;;;;;;4950852;28;20102;-68
2021/09/23 10:15:17;;;;;;;5.15;3.58;;;15.10;82.00;;;;;;4963645;28;20146;-68
2021/09/23 10:17:45;;;;;;;4.32;2.75;;;15.10;82.60;;;;;;4946789;28;20078;-68
2021/09/23 10:20:11;;;;;;;;;;;15.10;82.70;;;;;;4963554;28;20477;-68
2021/09/23 10:22:38;;;;;;;5.07;3.08;;;15.20;82.50;;;;;;4950336;28;19917;-67
2021/09/23 10:25:07;;;;;;;3.72;3.08;;;15.10;81.60;;;;;;4949610;28;20043;-67
2021/09/23 10:30:19;;;;;;;4.40;3.03;;;15.40;82.30;;;;;;4951334;28;20074;-68
2021/09/23 10:32:46;;;;;;;6.00;3.45;;;15.50;81.70;;;;;;4950215;28;20842;-68
2021/09/23 10:35:15;;;;;;;4.22;3.20;;;15.60;82.50;;;;;;4951309;28;20020;-68
2021/09/23 10:37:42;;;;;;;5.75;3.22;;;15.80;82.10;;;;;;4946625;28;20027;-68
2021/09/23 10:40:12;;;;;;;4.10;3.30;;;15.80;80.60;;;;;;4946974;28;20067;-68
2021/09/23 10:42:39;;;;;;;3.65;2.83;;;15.80;78.90;;;;;;4962268;28;20034;-67
2021/09/23 10:45:05;;;;;;;3.58;3.05;;;15.60;79.10;;;;;;4964150;28;20051;-67
2021/09/23 10:47:34;;;;;;;3.28;2.88;;;15.70;80.70;;;;;;4947199;28;20039;-67
2021/09/23 10:50:03;;;;;;;4.68;3.15;;;15.70;79.50;;;;;;4948806;28;20019;-68
2021/09/23 10:52:31;;;;;;;6.38;3.25;;;15.80;80.90;;;;;;4947805;28;20039;-67
2021/09/23 10:54:58;;;;;;;6.78;3.20;;;15.80;80.20;;;;;;4949970;28;20023;-68
2021/09/23 10:57:26;;;;;;;5.20;2.75;;;16.00;80.40;;;;;;4947030;28;20031;-68
2021/09/23 10:59:53;;;;;;;3.50;2.63;;;16.00;80.40;;;;;;4949246;28;20088;-68
2021/09/23 11:02:24;;;;;;;3.53;2.63;;;16.10;78.50;;;;;;4964397;28;20119;-68
2021/09/23 11:04:53;;;;;;;4.85;2.80;;;16.20;78.10;;;;;;4946425;28;20074;-68
2021/09/23 11:07:20;;;;;;;3.42;2.67;;;16.20;78.20;;;;;;4948379;28;20385;-67
2021/09/23 11:10:24;;;;;;;3.17;2.83;;;16.30;79.10;;;;;;4948542;28;20027;-68
2021/09/23 11:12:53;;;;;;;3.55;2.67;;;16.40;78.50;;;;;;4888064;29;20041;-67
2021/09/23 11:15:22;;;;;;;3.33;3.00;;;16.30;78.30;;;;;;4887921;29;20036;-67
2021/09/23 11:17:49;;;;;;;3.03;2.70;;;16.30;78.50;;;;;;4918550;28;20141;-67
2021/09/23 11:20:24;;;;;;;4.05;2.90;;;16.40;78.20;;;;;;4949309;28;21077;-67
2021/09/23 11:22:53;;;;;;;4.88;2.90;;;16.50;78.00;;;;;;4942005;28;20032;-67
2021/09/23 11:25:24;;;;;;;6.15;3.10;;;16.50;76.90;;;;;;4950075;28;20121;-67
2021/09/23 11:27:51;;;;;;;3.72;3.33;;;16.70;77.20;;;;;;4948123;28;20031;-67
2021/09/23 11:30:23;;;;;;;3.58;2.78;;;16.70;76.20;;;;;;4951055;28;20378;-67
2021/09/23 11:33:07;;;;;;;2.95;2.65;;;16.70;77.50;;;;;;4952395;28;20384;-67
2021/09/23 11:35:38;;;;;;;4.30;2.70;;;16.70;77.70;;;;;;4948075;28;20058;-68
2021/09/23 11:38:05;;;;;;;3.10;2.72;;;16.70;76.70;;;;;;4949807;28;21215;-68
2021/09/23 11:40:37;;;;;;;4.18;2.55;;;16.80;76.60;;;;;;4953026;28;20043;-68
2021/09/23 11:43:07;;;;;;;5.05;3.22;;;16.90;76.60;;;;;;4953022;28;20082;-68
2021/09/23 11:45:34;;;;;;;4.05;2.88;;;16.90;75.50;;;;;;4952204;28;20035;-68
2021/09/23 11:48:12;;;;;;;4.07;2.92;;;16.90;76.30;;;;;;4947461;28;20892;-67
2021/09/23 11:50:44;;;;;;;3.60;2.73;;;17.00;75.90;;;;;;4951072;28;20126;-68
2021/09/23 11:53:12;;;;;;;3.80;2.75;;;16.90;76.10;;;;;;4967598;28;20373;-67
2021/09/23 11:55:52;;;;;;;4.20;2.80;;;17.00;76.70;;;;;;4952313;28;20087;-68
2021/09/23 11:58:18;;;;;;;3.13;2.60;;;17.10;75.10;;;;;;4953798;28;20830;-67
2021/09/23 12:00:50;;;;;;;4.25;3.22;;;17.30;75.40;;;;;;4951679;28;20035;-68
2021/09/23 12:03:18;;;;;;;3.55;2.40;;;17.30;76.10;;;;;;4948303;28;20645;-67
2021/09/23 12:05:45;;;;;;;3.70;2.80;;;17.40;73.60;;;;;;4951342;28;20031;-67
2021/09/23 12:08:17;;;;;;;2.60;2.10;;;17.50;73.30;;;;;;4966814;28;20066;-67
2021/09/23 12:10:49;;;;;;;2.88;2.20;;;17.50;73.40;;;;;;4969461;28;20769;-67
2021/09/23 12:13:57;;;;;;;3.75;2.60;;;17.60;72.30;;;;;;4950016;28;20042;-68
2021/09/23 12:16:08;;;;;;;3.10;2.38;;;17.60;72.40;;;;;;4946286;28;20080;-68
2021/09/23 12:18:36;;;;;;;2.65;2.10;;;17.70;70.10;;;;;;4952259;28;20400;-67
2021/09/23 12:21:14;;;;;;;2.45;2.22;;;17.80;69.60;;;;;;4950461;28;20393;-68
2021/09/23 12:23:40;;;;;;;2.70;2.13;;;17.70;68.90;;;;;;4949555;28;20050;-67
2021/09/23 12:26:13;;;;;;;2.30;1.95;;;17.70;70.40;;;;;;4951868;28;20114;-68
2021/09/23 12:28:44;;;;;;;2.97;2.20;;;17.70;69.00;;;;;;4949657;28;20114;-67
2021/09/23 12:31:13;;;;;;;2.65;2.35;;;17.80;69.40;;;;;;4944206;28;20197;-70
2021/09/23 12:33:56;;;;;;;2.83;1.92;;;17.80;70.10;;;;;;4952230;28;20119;-68
2021/09/23 12:36:29;;;;;;;2.38;2.03;;;17.90;71.80;;;;;;4949296;28;20024;-67
2021/09/23 12:39:15;;;;;;;2.63;1.88;;;17.90;70.60;;;;;;4946131;28;20027;-68
2021/09/23 12:42:03;;;;;;;3.13;2.40;;;17.90;68.50;;;;;;4948487;28;20122;-68
2021/09/23 12:44:31;;;;;;;3.72;2.10;;;17.90;67.00;;;;;;4947540;28;20022;-67
2021/09/23 12:47:09;;;;;;;2.95;2.05;;;18.00;67.10;;;;;;4948855;28;20532;-67
2021/09/23 12:49:35;;;;;;;;;;;18.10;68.90;;;;;;4964023;28;20035;-67
2021/09/23 12:52:13;;;;;;;2.25;2.00;;;18.10;68.90;;;;;;4948886;28;19918;-67
2021/09/23 12:54:55;;;;;;;2.05;1.90;;;18.10;70.20;;;;;;4951120;28;20117;-67
2021/09/23 12:57:45;;;;;;;3.97;2.40;;;18.00;69.50;;;;;;4965567;28;20039;-67